Pays
Station

 

Conditions  météo  pour  Battle Creek, Kellogg Airport  -  Etats-Unis    Etats-Unis

  
22 °C
    
 
 

METAR pour Battle Creek, Kellogg Airport :

KBTL 200153Z 11007KT 10SM SCT043 OVC055 22/13 A2993 RMK AO2 SLP128 T02170133 $

 

Voici le bulletin pour Battle Creek, Kellogg Airport - Etats-Unis.
 
Le bulletin a été fait il y a 11 minutes, à 01:53 UTC .
Le vent soufflait à la vitesse de 3.6 mètres par seconde de Est/Sud-est (110°).
 
La température était de 22 °C, avec un point de rosée à 13 °C.
La température ressentie était de 24 °C.
 
La pression atmosphérique était de 1014 hPa.
L'humidité relative était de 56.7%.
 
Il y avait 3 à 4/8ème de nébulosité à une hauteur de 1311 mètres. Le ciel était nuageux à partir d'une hauteur de 1676 mètres
 
La visibilité globale était de 16.1 kilomètres.
 

 
 
 

Pays :   A   B   C   D   E   F   G   H   I   J   K   L   M   N   O   P   Q   R   S   T   U   V   W   Y   Z

 

Partenaires :  Info Météo avec Met'info
Météo Marine avec MeteoMarine.net
Infos Site  |  Infos Légales  |  Crédits  |  Confidentialité
Contactez-nous  |  Ajouter aux favoris
© 2013-2018 METAR - Tous droits réservés